Beef Island, British Virgin Islands

11:19 PM AST on August 24, 2016 (GMT -0400)
Beef I International | | Change Station

Elev 13 ft 18.44 °N, 64.54 °W | Updated 1 hour ago

Mostly Cloudy
Mostly Cloudy
82 °F
Feels Like 90 °F
N
10
Wind Variable Wind from SE

Today
High -- | Low -- °F
--% Chance of Precip.
Yesterday
High -- | Low -- °F
Precip. -- in
Pressure 29.95 in
Visibility 6.2 miles
Clouds Scattered Clouds 1700 ft
Mostly Cloudy 6000 ft
Heat Index 90 °F
Dew Point 75 °F
Humidity 79%
Rainfall 0.00 in
Snow Depth Not available.
6:02 AM 6:38 PM
Waning Gibbous, 50% visible
METAR TUPJ 250200Z 14009KT 9999 SCT017 BKN060 28/24 Q1014 RMK A2996
Pressure 29.95 in
Visibility 6.2 miles
Clouds Scattered Clouds 1700 ft
Mostly Cloudy 6000 ft
Heat Index 90 °F
Dew Point 75 °F
Humidity 79%
Rainfall 0.00 in
Snow Depth Not available.
6:02 AM 6:38 PM
Waning Gibbous, 50% visible
METAR TUPJ 250200Z 14009KT 9999 SCT017 BKN060 28/24 Q1014 RMK A2996

10-Day Weather Forecast

Almanac

Astronomy

Aug. 24, 2016 Rise Set
Actual Time
Civil Twilight
Nautical Twilight
Astronomical Twilight
Moon
Length of Visible Light
Length of Day
Tomorrow will be .
, % of the Moon is Illuminated

Today's Extremes

Country Highs Country Lows

Community

WunderPhotos

Upload Photos

1,934,787 photos uploaded!

WunderBlog® & News

Nearby

Air Quality

  Air Quality AQ Index Pollutant
Not available.

Snow Depth

Station Depth Elevation

Earthquake Activity

City Distance Mag. Time & Date
Minimum magnitude displayed is 2.5.

Coastal Water Temperatures

Place Temperature

Stations

Nearby Weather Stations

Station Location Temp. Windchill Dew Point Humidity Wind Precip. Elev Updated Type